sensor_id;sensor_type;location;lat;lon;timestamp;temperature;humidity
33095;DHT22;19459;53.044;8.910;2024-01-15T00:00:42;1.90;99.90
33095;DHT22;19459;53.044;8.910;2024-01-15T00:03:08;1.90;99.90
33095;DHT22;19459;53.044;8.910;2024-01-15T00:05:35;2.00;99.90
33095;DHT22;19459;53.044;8.910;2024-01-15T00:08:00;2.00;99.90
33095;DHT22;19459;53.044;8.910;2024-01-15T00:10:26;2.00;99.90
33095;DHT22;19459;53.044;8.910;2024-01-15T00:12:52;2.00;99.90
33095;DHT22;19459;53.044;8.910;2024-01-15T00:15:18;2.00;99.90
33095;DHT22;19459;53.044;8.910;2024-01-15T00:17:43;1.90;99.90
33095;DHT22;19459;53.044;8.910;2024-01-15T00:20:10;2.00;99.90
33095;DHT22;19459;53.044;8.910;2024-01-15T00:22:36;2.00;99.90
33095;DHT22;19459;53.044;8.910;2024-01-15T00:25:03;2.00;99.90
33095;DHT22;19459;53.044;8.910;2024-01-15T00:27:28;2.00;99.90
33095;DHT22;19459;53.044;8.910;2024-01-15T00:29:54;2.00;99.90
33095;DHT22;19459;53.044;8.910;2024-01-15T00:32:20;2.00;99.90
33095;DHT22;19459;53.044;8.910;2024-01-15T00:34:46;2.10;99.90
33095;DHT22;19459;53.044;8.910;2024-01-15T00:37:12;2.10;99.90
33095;DHT22;19459;53.044;8.910;2024-01-15T00:39:38;2.20;99.90
33095;DHT22;19459;53.044;8.910;2024-01-15T00:42:04;2.20;99.90
33095;DHT22;19459;53.044;8.910;2024-01-15T00:44:30;2.20;99.90
33095;DHT22;19459;53.044;8.910;2024-01-15T00:46:56;2.20;99.90
33095;DHT22;19459;53.044;8.910;2024-01-15T00:49:21;2.20;99.90
33095;DHT22;19459;53.044;8.910;2024-01-15T00:51:47;2.20;99.90
33095;DHT22;19459;53.044;8.910;2024-01-15T00:54:13;2.20;99.90
33095;DHT22;19459;53.044;8.910;2024-01-15T00:56:39;2.30;99.90
33095;DHT22;19459;53.044;8.910;2024-01-15T00:59:05;2.30;99.90
33095;DHT22;19459;53.044;8.910;2024-01-15T01:01:31;2.40;99.90
33095;DHT22;19459;53.044;8.910;2024-01-15T01:03:57;2.40;99.90
33095;DHT22;19459;53.044;8.910;2024-01-15T01:06:22;2.40;99.90
33095;DHT22;19459;53.044;8.910;2024-01-15T01:08:48;2.30;99.90
33095;DHT22;19459;53.044;8.910;2024-01-15T01:11:15;2.30;99.90
33095;DHT22;19459;53.044;8.910;2024-01-15T01:13:41;2.30;99.90
33095;DHT22;19459;53.044;8.910;2024-01-15T01:16:07;2.30;99.90
33095;DHT22;19459;53.044;8.910;2024-01-15T01:18:33;2.30;99.90
33095;DHT22;19459;53.044;8.910;2024-01-15T01:20:59;2.30;99.90
33095;DHT22;19459;53.044;8.910;2024-01-15T01:23:25;2.30;99.90
33095;DHT22;19459;53.044;8.910;2024-01-15T01:25:50;2.30;99.90
33095;DHT22;19459;53.044;8.910;2024-01-15T01:28:16;2.30;99.90
33095;DHT22;19459;53.044;8.910;2024-01-15T01:30:42;2.30;99.90
33095;DHT22;19459;53.044;8.910;2024-01-15T01:33:08;2.30;99.90
33095;DHT22;19459;53.044;8.910;2024-01-15T01:35:33;2.30;99.90
33095;DHT22;19459;53.044;8.910;2024-01-15T01:37:59;2.30;99.90
33095;DHT22;19459;53.044;8.910;2024-01-15T01:40:25;2.20;99.90
33095;DHT22;19459;53.044;8.910;2024-01-15T01:42:51;2.20;99.90
33095;DHT22;19459;53.044;8.910;2024-01-15T01:45:16;2.10;99.90
33095;DHT22;19459;53.044;8.910;2024-01-15T01:47:44;2.00;99.90
33095;DHT22;19459;53.044;8.910;2024-01-15T01:50:10;2.00;99.90
33095;DHT22;19459;53.044;8.910;2024-01-15T01:52:36;1.90;99.90
33095;DHT22;19459;53.044;8.910;2024-01-15T01:55:03;2.00;99.90
33095;DHT22;19459;53.044;8.910;2024-01-15T01:57:31;1.90;99.90
33095;DHT22;19459;53.044;8.910;2024-01-15T01:59:59;2.00;99.90
33095;DHT22;19459;53.044;8.910;2024-01-15T02:02:25;1.90;99.90
33095;DHT22;19459;53.044;8.910;2024-01-15T02:04:51;1.90;99.90
33095;DHT22;19459;53.044;8.910;2024-01-15T02:07:17;1.90;99.90
33095;DHT22;19459;53.044;8.910;2024-01-15T02:09:44;1.90;99.90
33095;DHT22;19459;53.044;8.910;2024-01-15T02:12:11;1.80;99.90
33095;DHT22;19459;53.044;8.910;2024-01-15T02:14:37;1.80;99.90
33095;DHT22;19459;53.044;8.910;2024-01-15T02:17:03;1.80;99.90
33095;DHT22;19459;53.044;8.910;2024-01-15T02:19:28;1.80;99.90
33095;DHT22;19459;53.044;8.910;2024-01-15T02:21:54;1.80;99.90
33095;DHT22;19459;53.044;8.910;2024-01-15T02:24:20;1.90;99.90
33095;DHT22;19459;53.044;8.910;2024-01-15T02:26:46;1.90;99.90
33095;DHT22;19459;53.044;8.910;2024-01-15T02:29:12;1.90;99.90
33095;DHT22;19459;53.044;8.910;2024-01-15T02:31:39;2.00;99.90
33095;DHT22;19459;53.044;8.910;2024-01-15T02:34:05;2.00;99.90
33095;DHT22;19459;53.044;8.910;2024-01-15T02:36:30;2.00;99.90
33095;DHT22;19459;53.044;8.910;2024-01-15T02:38:56;2.10;99.90
33095;DHT22;19459;53.044;8.910;2024-01-15T02:41:22;2.10;99.90
33095;DHT22;19459;53.044;8.910;2024-01-15T02:43:48;2.10;99.90
33095;DHT22;19459;53.044;8.910;2024-01-15T02:46:13;2.20;99.90
33095;DHT22;19459;53.044;8.910;2024-01-15T02:48:40;2.20;99.90
33095;DHT22;19459;53.044;8.910;2024-01-15T02:51:05;2.20;99.90
33095;DHT22;19459;53.044;8.910;2024-01-15T02:53:31;2.30;99.90
33095;DHT22;19459;53.044;8.910;2024-01-15T02:55:57;2.30;99.90
33095;DHT22;19459;53.044;8.910;2024-01-15T02:58:22;2.30;99.90
33095;DHT22;19459;53.044;8.910;2024-01-15T03:00:48;2.30;99.90
33095;DHT22;19459;53.044;8.910;2024-01-15T03:03:14;2.30;99.90
33095;DHT22;19459;53.044;8.910;2024-01-15T03:05:40;2.30;99.90
33095;DHT22;19459;53.044;8.910;2024-01-15T03:08:05;2.30;99.90
33095;DHT22;19459;53.044;8.910;2024-01-15T03:10:31;2.30;99.90
33095;DHT22;19459;53.044;8.910;2024-01-15T03:12:57;2.20;99.90
33095;DHT22;19459;53.044;8.910;2024-01-15T03:15:23;2.20;99.90
33095;DHT22;19459;53.044;8.910;2024-01-15T03:17:49;2.20;99.90
33095;DHT22;19459;53.044;8.910;2024-01-15T03:20:15;2.20;99.90
33095;DHT22;19459;53.044;8.910;2024-01-15T03:22:40;2.10;99.90
33095;DHT22;19459;53.044;8.910;2024-01-15T03:25:06;2.10;99.90
33095;DHT22;19459;53.044;8.910;2024-01-15T03:27:32;2.10;99.90
33095;DHT22;19459;53.044;8.910;2024-01-15T03:29:59;2.10;99.90
33095;DHT22;19459;53.044;8.910;2024-01-15T03:32:24;2.10;99.90
33095;DHT22;19459;53.044;8.910;2024-01-15T03:34:50;2.10;99.90
33095;DHT22;19459;53.044;8.910;2024-01-15T03:37:17;2.10;99.90
33095;DHT22;19459;53.044;8.910;2024-01-15T03:39:43;2.00;99.90
33095;DHT22;19459;53.044;8.910;2024-01-15T03:42:09;2.10;99.90
33095;DHT22;19459;53.044;8.910;2024-01-15T03:44:35;2.10;99.90
33095;DHT22;19459;53.044;8.910;2024-01-15T03:47:00;2.10;99.90
33095;DHT22;19459;53.044;8.910;2024-01-15T03:49:26;2.10;99.90
33095;DHT22;19459;53.044;8.910;2024-01-15T03:51:52;2.10;99.90
33095;DHT22;19459;53.044;8.910;2024-01-15T03:54:18;2.20;99.90
33095;DHT22;19459;53.044;8.910;2024-01-15T03:56:43;2.10;99.90
33095;DHT22;19459;53.044;8.910;2024-01-15T03:59:09;2.20;99.90
33095;DHT22;19459;53.044;8.910;2024-01-15T04:01:35;2.10;99.90
33095;DHT22;19459;53.044;8.910;2024-01-15T04:04:00;2.20;99.90
33095;DHT22;19459;53.044;8.910;2024-01-15T04:06:26;2.20;99.90
33095;DHT22;19459;53.044;8.910;2024-01-15T04:08:52;2.20;99.90
33095;DHT22;19459;53.044;8.910;2024-01-15T04:11:18;2.10;99.90
33095;DHT22;19459;53.044;8.910;2024-01-15T04:13:43;2.10;99.90
33095;DHT22;19459;53.044;8.910;2024-01-15T04:16:09;2.10;99.90
33095;DHT22;19459;53.044;8.910;2024-01-15T04:18:35;2.10;99.90
33095;DHT22;19459;53.044;8.910;2024-01-15T04:21:01;2.10;99.90
33095;DHT22;19459;53.044;8.910;2024-01-15T04:23:30;2.10;99.90
33095;DHT22;19459;53.044;8.910;2024-01-15T04:25:55;2.20;99.90
33095;DHT22;19459;53.044;8.910;2024-01-15T04:28:21;2.20;99.90
33095;DHT22;19459;53.044;8.910;2024-01-15T04:30:47;2.20;99.90
33095;DHT22;19459;53.044;8.910;2024-01-15T04:33:12;2.20;99.90
33095;DHT22;19459;53.044;8.910;2024-01-15T04:35:38;2.30;99.90
33095;DHT22;19459;53.044;8.910;2024-01-15T04:38:04;2.20;99.90
33095;DHT22;19459;53.044;8.910;2024-01-15T04:40:30;2.20;99.90
33095;DHT22;19459;53.044;8.910;2024-01-15T04:42:55;2.20;99.90
33095;DHT22;19459;53.044;8.910;2024-01-15T04:45:21;2.30;99.90
33095;DHT22;19459;53.044;8.910;2024-01-15T04:47:54;2.20;99.90
33095;DHT22;19459;53.044;8.910;2024-01-15T04:50:22;2.20;99.90
33095;DHT22;19459;53.044;8.910;2024-01-15T04:52:48;2.30;99.90
33095;DHT22;19459;53.044;8.910;2024-01-15T04:55:13;2.30;99.90
33095;DHT22;19459;53.044;8.910;2024-01-15T04:57:39;2.30;99.90
33095;DHT22;19459;53.044;8.910;2024-01-15T05:00:05;2.30;99.90
33095;DHT22;19459;53.044;8.910;2024-01-15T05:02:32;2.40;99.90
33095;DHT22;19459;53.044;8.910;2024-01-15T05:04:58;2.30;99.90
33095;DHT22;19459;53.044;8.910;2024-01-15T05:07:23;2.30;99.90
33095;DHT22;19459;53.044;8.910;2024-01-15T05:09:49;2.20;99.90
33095;DHT22;19459;53.044;8.910;2024-01-15T05:12:15;2.20;99.90
33095;DHT22;19459;53.044;8.910;2024-01-15T05:14:40;2.20;99.90
33095;DHT22;19459;53.044;8.910;2024-01-15T05:17:06;2.10;99.90
33095;DHT22;19459;53.044;8.910;2024-01-15T05:19:32;2.10;99.90
33095;DHT22;19459;53.044;8.910;2024-01-15T05:21:58;2.10;99.90
33095;DHT22;19459;53.044;8.910;2024-01-15T05:24:23;2.10;99.90
33095;DHT22;19459;53.044;8.910;2024-01-15T05:26:51;2.10;99.90
33095;DHT22;19459;53.044;8.910;2024-01-15T05:29:17;2.10;99.90
33095;DHT22;19459;53.044;8.910;2024-01-15T05:31:44;2.10;99.90
33095;DHT22;19459;53.044;8.910;2024-01-15T05:34:09;2.10;99.90
33095;DHT22;19459;53.044;8.910;2024-01-15T05:36:35;2.10;99.90
33095;DHT22;19459;53.044;8.910;2024-01-15T05:39:01;2.10;99.90
33095;DHT22;19459;53.044;8.910;2024-01-15T05:41:28;2.10;99.90
33095;DHT22;19459;53.044;8.910;2024-01-15T05:43:54;2.10;99.90
33095;DHT22;19459;53.044;8.910;2024-01-15T05:46:19;2.00;99.90
33095;DHT22;19459;53.044;8.910;2024-01-15T05:48:45;2.00;99.90
33095;DHT22;19459;53.044;8.910;2024-01-15T05:51:11;2.00;99.90
33095;DHT22;19459;53.044;8.910;2024-01-15T05:53:37;2.00;99.90
33095;DHT22;19459;53.044;8.910;2024-01-15T05:56:05;2.10;99.90
33095;DHT22;19459;53.044;8.910;2024-01-15T05:58:31;2.10;99.90
33095;DHT22;19459;53.044;8.910;2024-01-15T06:00:57;2.10;99.90
33095;DHT22;19459;53.044;8.910;2024-01-15T06:03:23;2.10;99.90
33095;DHT22;19459;53.044;8.910;2024-01-15T06:05:49;2.20;99.90
33095;DHT22;19459;53.044;8.910;2024-01-15T06:08:14;2.20;99.90
33095;DHT22;19459;53.044;8.910;2024-01-15T06:10:40;2.20;99.90
33095;DHT22;19459;53.044;8.910;2024-01-15T06:13:06;2.20;99.90
33095;DHT22;19459;53.044;8.910;2024-01-15T06:15:31;2.20;99.90
33095;DHT22;19459;53.044;8.910;2024-01-15T06:17:57;2.20;99.90
33095;DHT22;19459;53.044;8.910;2024-01-15T06:20:23;2.20;99.90
33095;DHT22;19459;53.044;8.910;2024-01-15T06:22:49;2.10;99.90
33095;DHT22;19459;53.044;8.910;2024-01-15T06:25:14;2.10;99.90
33095;DHT22;19459;53.044;8.910;2024-01-15T06:27:40;2.10;99.90
33095;DHT22;19459;53.044;8.910;2024-01-15T06:30:06;2.10;99.90
33095;DHT22;19459;53.044;8.910;2024-01-15T06:32:32;2.10;99.90
33095;DHT22;19459;53.044;8.910;2024-01-15T06:34:58;2.10;99.90
33095;DHT22;19459;53.044;8.910;2024-01-15T06:37:24;2.10;99.90
33095;DHT22;19459;53.044;8.910;2024-01-15T06:39:49;2.10;99.90
33095;DHT22;19459;53.044;8.910;2024-01-15T06:42:15;2.10;99.90
33095;DHT22;19459;53.044;8.910;2024-01-15T06:44:41;2.10;99.90
33095;DHT22;19459;53.044;8.910;2024-01-15T06:47:07;2.10;99.90
33095;DHT22;19459;53.044;8.910;2024-01-15T06:49:35;2.10;99.90
33095;DHT22;19459;53.044;8.910;2024-01-15T06:52:01;2.10;99.90
33095;DHT22;19459;53.044;8.910;2024-01-15T06:54:27;2.10;99.90
33095;DHT22;19459;53.044;8.910;2024-01-15T06:56:52;2.10;99.90
33095;DHT22;19459;53.044;8.910;2024-01-15T06:59:18;2.10;99.90
33095;DHT22;19459;53.044;8.910;2024-01-15T07:01:44;2.10;99.90
33095;DHT22;19459;53.044;8.910;2024-01-15T07:04:10;2.10;99.90
33095;DHT22;19459;53.044;8.910;2024-01-15T07:06:35;2.10;99.90
33095;DHT22;19459;53.044;8.910;2024-01-15T07:09:01;2.10;99.90
33095;DHT22;19459;53.044;8.910;2024-01-15T07:11:27;2.00;99.90
33095;DHT22;19459;53.044;8.910;2024-01-15T07:13:53;2.00;99.90
33095;DHT22;19459;53.044;8.910;2024-01-15T07:16:19;1.90;99.90
33095;DHT22;19459;53.044;8.910;2024-01-15T07:18:44;1.90;99.90
33095;DHT22;19459;53.044;8.910;2024-01-15T07:21:10;1.80;99.90
33095;DHT22;19459;53.044;8.910;2024-01-15T07:23:36;1.80;99.90
33095;DHT22;19459;53.044;8.910;2024-01-15T07:26:02;1.70;99.90
33095;DHT22;19459;53.044;8.910;2024-01-15T07:28:29;1.70;99.90
33095;DHT22;19459;53.044;8.910;2024-01-15T07:30:55;1.50;99.90
33095;DHT22;19459;53.044;8.910;2024-01-15T07:33:21;1.50;99.90
33095;DHT22;19459;53.044;8.910;2024-01-15T07:35:46;1.50;99.90
33095;DHT22;19459;53.044;8.910;2024-01-15T07:38:12;1.40;99.90
33095;DHT22;19459;53.044;8.910;2024-01-15T07:40:38;1.40;99.90
33095;DHT22;19459;53.044;8.910;2024-01-15T07:43:04;1.40;99.90
33095;DHT22;19459;53.044;8.910;2024-01-15T07:45:30;1.40;99.90
33095;DHT22;19459;53.044;8.910;2024-01-15T07:47:56;1.40;99.90
33095;DHT22;19459;53.044;8.910;2024-01-15T07:50:22;1.40;99.90
33095;DHT22;19459;53.044;8.910;2024-01-15T07:52:48;1.50;99.90
33095;DHT22;19459;53.044;8.910;2024-01-15T07:55:14;1.50;99.90
33095;DHT22;19459;53.044;8.910;2024-01-15T07:57:39;1.60;99.90
33095;DHT22;19459;53.044;8.910;2024-01-15T08:00:06;1.60;99.90
33095;DHT22;19459;53.044;8.910;2024-01-15T08:02:32;1.60;99.90
33095;DHT22;19459;53.044;8.910;2024-01-15T08:04:58;1.60;99.90
33095;DHT22;19459;53.044;8.910;2024-01-15T08:07:26;1.70;99.90
33095;DHT22;19459;53.044;8.910;2024-01-15T08:09:52;1.70;99.90
33095;DHT22;19459;53.044;8.910;2024-01-15T08:12:18;1.70;99.90
33095;DHT22;19459;53.044;8.910;2024-01-15T08:14:44;1.70;99.90
33095;DHT22;19459;53.044;8.910;2024-01-15T08:17:10;1.70;99.90
33095;DHT22;19459;53.044;8.910;2024-01-15T08:19:36;1.80;99.90
33095;DHT22;19459;53.044;8.910;2024-01-15T08:22:02;1.80;99.90
33095;DHT22;19459;53.044;8.910;2024-01-15T08:24:28;1.80;99.90
33095;DHT22;19459;53.044;8.910;2024-01-15T08:26:54;1.80;99.90
33095;DHT22;19459;53.044;8.910;2024-01-15T08:29:21;1.80;99.90
33095;DHT22;19459;53.044;8.910;2024-01-15T08:31:47;1.80;99.90
33095;DHT22;19459;53.044;8.910;2024-01-15T08:34:13;1.80;99.90
33095;DHT22;19459;53.044;8.910;2024-01-15T08:36:39;1.80;99.90
33095;DHT22;19459;53.044;8.910;2024-01-15T08:39:06;1.90;99.90
33095;DHT22;19459;53.044;8.910;2024-01-15T08:41:35;1.90;99.90
33095;DHT22;19459;53.044;8.910;2024-01-15T08:44:01;1.80;99.90
33095;DHT22;19459;53.044;8.910;2024-01-15T08:46:28;1.90;99.90
33095;DHT22;19459;53.044;8.910;2024-01-15T08:48:54;1.90;99.90
33095;DHT22;19459;53.044;8.910;2024-01-15T08:51:19;1.90;99.90
33095;DHT22;19459;53.044;8.910;2024-01-15T08:53:45;1.90;99.90
33095;DHT22;19459;53.044;8.910;2024-01-15T08:56:11;1.90;99.90
33095;DHT22;19459;53.044;8.910;2024-01-15T08:58:37;1.90;99.90
33095;DHT22;19459;53.044;8.910;2024-01-15T09:01:02;2.00;99.90
33095;DHT22;19459;53.044;8.910;2024-01-15T09:03:28;1.90;99.90
33095;DHT22;19459;53.044;8.910;2024-01-15T09:05:54;2.00;99.90
33095;DHT22;19459;53.044;8.910;2024-01-15T09:08:20;2.00;99.90
33095;DHT22;19459;53.044;8.910;2024-01-15T09:10:46;2.00;99.90
33095;DHT22;19459;53.044;8.910;2024-01-15T09:13:12;2.10;99.90
33095;DHT22;19459;53.044;8.910;2024-01-15T09:15:38;2.00;99.90
33095;DHT22;19459;53.044;8.910;2024-01-15T09:18:04;2.10;99.90
33095;DHT22;19459;53.044;8.910;2024-01-15T09:20:30;2.20;99.90
33095;DHT22;19459;53.044;8.910;2024-01-15T09:22:56;2.20;99.90
33095;DHT22;19459;53.044;8.910;2024-01-15T09:25:22;2.20;99.90
33095;DHT22;19459;53.044;8.910;2024-01-15T09:27:47;2.20;99.90
33095;DHT22;19459;53.044;8.910;2024-01-15T09:30:14;2.20;99.90
33095;DHT22;19459;53.044;8.910;2024-01-15T09:32:40;2.20;99.90
33095;DHT22;19459;53.044;8.910;2024-01-15T09:35:06;2.20;99.90
33095;DHT22;19459;53.044;8.910;2024-01-15T09:37:32;2.10;99.90
33095;DHT22;19459;53.044;8.910;2024-01-15T09:39:57;2.20;99.90
33095;DHT22;19459;53.044;8.910;2024-01-15T09:42:27;2.20;99.90
33095;DHT22;19459;53.044;8.910;2024-01-15T09:44:54;2.20;99.90
33095;DHT22;19459;53.044;8.910;2024-01-15T09:47:20;2.30;99.90
33095;DHT22;19459;53.044;8.910;2024-01-15T09:49:47;2.30;99.90
33095;DHT22;19459;53.044;8.910;2024-01-15T09:52:15;2.20;99.90
33095;DHT22;19459;53.044;8.910;2024-01-15T09:54:43;2.10;99.90
33095;DHT22;19459;53.044;8.910;2024-01-15T09:57:09;2.00;99.90
33095;DHT22;19459;53.044;8.910;2024-01-15T09:59:36;1.90;99.90
33095;DHT22;19459;53.044;8.910;2024-01-15T10:02:03;1.90;99.90
33095;DHT22;19459;53.044;8.910;2024-01-15T10:04:29;2.00;99.90
33095;DHT22;19459;53.044;8.910;2024-01-15T10:06:59;2.00;99.90
33095;DHT22;19459;53.044;8.910;2024-01-15T10:09:26;2.10;99.90
33095;DHT22;19459;53.044;8.910;2024-01-15T10:11:55;2.10;99.90
33095;DHT22;19459;53.044;8.910;2024-01-15T10:14:21;2.10;99.90
33095;DHT22;19459;53.044;8.910;2024-01-15T10:16:46;2.10;99.90
33095;DHT22;19459;53.044;8.910;2024-01-15T10:19:12;2.10;99.90
33095;DHT22;19459;53.044;8.910;2024-01-15T10:21:38;2.10;99.90
33095;DHT22;19459;53.044;8.910;2024-01-15T10:24:04;2.10;99.90
33095;DHT22;19459;53.044;8.910;2024-01-15T10:26:31;2.20;99.90
33095;DHT22;19459;53.044;8.910;2024-01-15T10:29:00;2.20;99.90
33095;DHT22;19459;53.044;8.910;2024-01-15T10:31:27;2.20;99.90
33095;DHT22;19459;53.044;8.910;2024-01-15T10:33:53;2.20;99.90
33095;DHT22;19459;53.044;8.910;2024-01-15T10:36:19;2.20;99.90
33095;DHT22;19459;53.044;8.910;2024-01-15T10:38:45;2.20;99.90
33095;DHT22;19459;53.044;8.910;2024-01-15T10:41:12;2.20;99.90
33095;DHT22;19459;53.044;8.910;2024-01-15T10:43:38;2.30;99.90
33095;DHT22;19459;53.044;8.910;2024-01-15T10:46:07;2.30;99.90
33095;DHT22;19459;53.044;8.910;2024-01-15T10:48:33;2.30;99.90
33095;DHT22;19459;53.044;8.910;2024-01-15T10:51:01;2.30;99.90
33095;DHT22;19459;53.044;8.910;2024-01-15T10:53:39;2.30;99.90
33095;DHT22;19459;53.044;8.910;2024-01-15T10:56:10;2.40;99.90
33095;DHT22;19459;53.044;8.910;2024-01-15T10:58:37;2.50;99.90
33095;DHT22;19459;53.044;8.910;2024-01-15T11:01:05;2.40;99.90
33095;DHT22;19459;53.044;8.910;2024-01-15T11:03:31;2.30;99.90
33095;DHT22;19459;53.044;8.910;2024-01-15T11:05:57;2.30;99.90
33095;DHT22;19459;53.044;8.910;2024-01-15T11:08:24;2.30;99.90
33095;DHT22;19459;53.044;8.910;2024-01-15T11:10:51;2.30;99.90
33095;DHT22;19459;53.044;8.910;2024-01-15T11:16:03;2.20;99.90
33095;DHT22;19459;53.044;8.910;2024-01-15T11:21:28;2.20;99.90
33095;DHT22;19459;53.044;8.910;2024-01-15T11:23:58;2.10;99.90
33095;DHT22;19459;53.044;8.910;2024-01-15T11:29:02;2.20;99.90
33095;DHT22;19459;53.044;8.910;2024-01-15T11:34:07;2.30;99.90
33095;DHT22;19459;53.044;8.910;2024-01-15T11:42:02;2.50;99.90
33095;DHT22;19459;53.044;8.910;2024-01-15T11:44:29;2.50;99.90
33095;DHT22;19459;53.044;8.910;2024-01-15T11:47:03;2.50;99.90
33095;DHT22;19459;53.044;8.910;2024-01-15T11:50:00;2.50;99.90
33095;DHT22;19459;53.044;8.910;2024-01-15T11:52:35;2.60;99.90
33095;DHT22;19459;53.044;8.910;2024-01-15T11:55:12;2.60;99.90
33095;DHT22;19459;53.044;8.910;2024-01-15T11:57:45;2.60;99.90
33095;DHT22;19459;53.044;8.910;2024-01-15T12:00:20;2.60;99.90
33095;DHT22;19459;53.044;8.910;2024-01-15T12:02:48;2.60;99.90
33095;DHT22;19459;53.044;8.910;2024-01-15T12:05:15;2.60;99.90
33095;DHT22;19459;53.044;8.910;2024-01-15T12:07:44;2.60;99.90
33095;DHT22;19459;53.044;8.910;2024-01-15T12:10:15;2.70;99.90
33095;DHT22;19459;53.044;8.910;2024-01-15T12:12:56;2.70;99.90
33095;DHT22;19459;53.044;8.910;2024-01-15T12:15:28;2.80;99.90
33095;DHT22;19459;53.044;8.910;2024-01-15T12:18:00;2.80;99.90
33095;DHT22;19459;53.044;8.910;2024-01-15T12:20:29;2.90;99.90
33095;DHT22;19459;53.044;8.910;2024-01-15T12:22:56;2.90;99.90
33095;DHT22;19459;53.044;8.910;2024-01-15T12:25:22;3.00;99.90
33095;DHT22;19459;53.044;8.910;2024-01-15T12:27:50;3.00;99.90
33095;DHT22;19459;53.044;8.910;2024-01-15T12:30:17;3.00;99.90
33095;DHT22;19459;53.044;8.910;2024-01-15T12:32:42;3.00;99.90
33095;DHT22;19459;53.044;8.910;2024-01-15T12:35:10;3.10;99.90
33095;DHT22;19459;53.044;8.910;2024-01-15T12:37:37;3.10;99.90
33095;DHT22;19459;53.044;8.910;2024-01-15T12:40:07;3.10;99.90
33095;DHT22;19459;53.044;8.910;2024-01-15T12:42:35;3.10;99.90
33095;DHT22;19459;53.044;8.910;2024-01-15T12:45:03;3.10;99.90
33095;DHT22;19459;53.044;8.910;2024-01-15T12:47:33;3.10;99.90
33095;DHT22;19459;53.044;8.910;2024-01-15T12:49:59;3.10;99.90
33095;DHT22;19459;53.044;8.910;2024-01-15T12:52:28;3.10;99.90
33095;DHT22;19459;53.044;8.910;2024-01-15T12:54:55;3.10;99.90
33095;DHT22;19459;53.044;8.910;2024-01-15T12:57:21;3.10;99.90
33095;DHT22;19459;53.044;8.910;2024-01-15T12:59:49;3.10;99.90
33095;DHT22;19459;53.044;8.910;2024-01-15T13:02:18;3.00;99.90
33095;DHT22;19459;53.044;8.910;2024-01-15T13:04:44;3.00;99.90
33095;DHT22;19459;53.044;8.910;2024-01-15T13:07:09;3.00;99.90
33095;DHT22;19459;53.044;8.910;2024-01-15T13:09:35;3.00;99.90
33095;DHT22;19459;53.044;8.910;2024-01-15T13:12:02;3.00;99.90
33095;DHT22;19459;53.044;8.910;2024-01-15T13:14:28;3.00;99.90
33095;DHT22;19459;53.044;8.910;2024-01-15T13:16:54;2.90;99.90
33095;DHT22;19459;53.044;8.910;2024-01-15T13:19:22;2.80;99.90
33095;DHT22;19459;53.044;8.910;2024-01-15T13:21:48;2.60;99.90
33095;DHT22;19459;53.044;8.910;2024-01-15T13:24:15;2.50;99.90
33095;DHT22;19459;53.044;8.910;2024-01-15T13:26:41;2.30;99.90
33095;DHT22;19459;53.044;8.910;2024-01-15T13:29:07;2.20;99.90
33095;DHT22;19459;53.044;8.910;2024-01-15T13:31:33;2.20;99.90
33095;DHT22;19459;53.044;8.910;2024-01-15T13:33:59;2.20;99.90
33095;DHT22;19459;53.044;8.910;2024-01-15T13:36:26;2.20;99.90
33095;DHT22;19459;53.044;8.910;2024-01-15T13:38:53;2.20;99.90
33095;DHT22;19459;53.044;8.910;2024-01-15T13:41:20;2.20;99.90
33095;DHT22;19459;53.044;8.910;2024-01-15T13:43:53;2.10;99.90
33095;DHT22;19459;53.044;8.910;2024-01-15T13:46:23;2.00;99.90
33095;DHT22;19459;53.044;8.910;2024-01-15T13:48:52;2.00;99.90
33095;DHT22;19459;53.044;8.910;2024-01-15T13:51:18;1.90;99.90
33095;DHT22;19459;53.044;8.910;2024-01-15T13:54:04;1.90;99.90
33095;DHT22;19459;53.044;8.910;2024-01-15T13:56:30;1.90;99.90
33095;DHT22;19459;53.044;8.910;2024-01-15T13:58:58;2.00;99.90
33095;DHT22;19459;53.044;8.910;2024-01-15T14:01:25;2.00;99.90
33095;DHT22;19459;53.044;8.910;2024-01-15T14:03:50;1.90;99.90
33095;DHT22;19459;53.044;8.910;2024-01-15T14:06:16;2.00;99.90
33095;DHT22;19459;53.044;8.910;2024-01-15T14:08:42;1.90;99.90
33095;DHT22;19459;53.044;8.910;2024-01-15T14:11:10;2.00;99.90
33095;DHT22;19459;53.044;8.910;2024-01-15T14:13:36;1.90;99.90
33095;DHT22;19459;53.044;8.910;2024-01-15T14:16:02;2.00;99.90
33095;DHT22;19459;53.044;8.910;2024-01-15T14:18:27;1.90;99.90
33095;DHT22;19459;53.044;8.910;2024-01-15T14:20:53;2.00;99.90
33095;DHT22;19459;53.044;8.910;2024-01-15T14:23:25;2.00;99.90
33095;DHT22;19459;53.044;8.910;2024-01-15T14:25:51;2.10;99.90
33095;DHT22;19459;53.044;8.910;2024-01-15T14:28:17;2.10;99.90
33095;DHT22;19459;53.044;8.910;2024-01-15T14:30:42;2.10;99.90
33095;DHT22;19459;53.044;8.910;2024-01-15T14:33:08;2.10;99.90
33095;DHT22;19459;53.044;8.910;2024-01-15T14:35:34;2.20;99.90
33095;DHT22;19459;53.044;8.910;2024-01-15T14:38:00;2.20;99.90
33095;DHT22;19459;53.044;8.910;2024-01-15T14:40:26;2.20;99.90
33095;DHT22;19459;53.044;8.910;2024-01-15T14:42:52;2.20;99.90
33095;DHT22;19459;53.044;8.910;2024-01-15T14:45:18;2.20;99.90
33095;DHT22;19459;53.044;8.910;2024-01-15T14:47:44;2.20;99.90
33095;DHT22;19459;53.044;8.910;2024-01-15T14:50:10;2.20;99.90
33095;DHT22;19459;53.044;8.910;2024-01-15T14:52:36;2.20;99.90
33095;DHT22;19459;53.044;8.910;2024-01-15T14:55:02;2.20;99.90
33095;DHT22;19459;53.044;8.910;2024-01-15T14:57:28;2.20;99.90
33095;DHT22;19459;53.044;8.910;2024-01-15T14:59:54;2.20;99.90
33095;DHT22;19459;53.044;8.910;2024-01-15T15:02:20;2.20;99.90
33095;DHT22;19459;53.044;8.910;2024-01-15T15:04:46;2.20;99.90
33095;DHT22;19459;53.044;8.910;2024-01-15T15:07:12;2.20;99.90
33095;DHT22;19459;53.044;8.910;2024-01-15T15:09:38;2.20;99.90
33095;DHT22;19459;53.044;8.910;2024-01-15T15:12:05;2.20;99.90
33095;DHT22;19459;53.044;8.910;2024-01-15T15:14:31;2.20;99.90
33095;DHT22;19459;53.044;8.910;2024-01-15T15:17:05;2.20;99.90
33095;DHT22;19459;53.044;8.910;2024-01-15T15:19:31;2.20;99.90
33095;DHT22;19459;53.044;8.910;2024-01-15T15:21:58;2.20;99.90
33095;DHT22;19459;53.044;8.910;2024-01-15T15:24:24;2.20;99.90
33095;DHT22;19459;53.044;8.910;2024-01-15T15:26:50;2.20;99.90
33095;DHT22;19459;53.044;8.910;2024-01-15T15:29:16;2.20;99.90
33095;DHT22;19459;53.044;8.910;2024-01-15T15:31:45;2.20;99.90
33095;DHT22;19459;53.044;8.910;2024-01-15T15:34:11;2.10;99.90
33095;DHT22;19459;53.044;8.910;2024-01-15T15:36:37;2.20;99.90
33095;DHT22;19459;53.044;8.910;2024-01-15T15:39:02;2.10;99.90
33095;DHT22;19459;53.044;8.910;2024-01-15T15:41:28;2.10;99.90
33095;DHT22;19459;53.044;8.910;2024-01-15T15:43:54;2.10;99.90
33095;DHT22;19459;53.044;8.910;2024-01-15T15:46:20;2.10;99.90
33095;DHT22;19459;53.044;8.910;2024-01-15T15:48:46;2.10;99.90
33095;DHT22;19459;53.044;8.910;2024-01-15T15:51:13;2.10;99.90
33095;DHT22;19459;53.044;8.910;2024-01-15T15:53:38;2.10;99.90
33095;DHT22;19459;53.044;8.910;2024-01-15T15:56:04;2.10;99.90